Time;durP1;ratioP1;P1;durP2;ratioP2;P2;SDS_P1;SDS_P2;PMS_P1;PMS_P2;Temp;Humidity;BMP_temperature;BMP_pressure;BME280_temperature;BME280_humidity;BME280_pressure;Samples;Min_cycle;Max_cycle;Signal;HPM_P1;HPM_P2
2024/02/13 00:00:25;;;;;;;7.93;2.75;;;;;;;7.10;65.11;97060.94;4963509;28;20503;-81
2024/02/13 00:02:51;;;;;;;3.38;2.45;;;;;;;7.18;65.65;97072.75;4943771;28;20092;-81
2024/02/13 00:05:16;;;;;;;6.50;3.13;;;;;;;7.17;64.67;97066.78;4944558;28;20286;-82
2024/02/13 00:07:41;;;;;;;6.43;3.05;;;;;;;7.25;65.11;97074.22;4933371;28;20478;-81
2024/02/13 00:10:11;;;;;;;7.05;2.63;;;;;;;7.23;65.43;97075.44;4934412;28;20034;-81
2024/02/13 00:12:37;;;;;;;7.13;2.85;;;;;;;7.18;65.11;97089.09;4950305;28;20117;-82
2024/02/13 00:15:03;;;;;;;5.40;2.58;;;;;;;7.10;64.88;97086.81;4941711;28;20117;-81
2024/02/13 00:17:29;;;;;;;8.65;3.30;;;;;;;7.02;66.06;97089.72;4945656;28;20065;-82
2024/02/13 00:19:55;;;;;;;7.80;3.00;;;;;;;7.09;66.09;97096.41;4956393;28;20058;-81
2024/02/13 00:22:21;;;;;;;5.22;2.92;;;;;;;7.14;66.08;97106.06;4945947;28;20039;-81
2024/02/13 00:24:50;;;;;;;8.02;2.80;;;;;;;7.12;65.63;97116.63;4963995;28;20047;-81
2024/02/13 00:27:19;;;;;;;7.60;2.90;;;;;;;7.15;65.96;97119.81;4962637;28;20227;-81
2024/02/13 00:29:45;;;;;;;5.25;2.63;;;;;;;7.07;65.93;97129.47;5027019;28;20093;-81
2024/02/13 00:32:13;;;;;;;5.90;2.97;;;;;;;7.01;65.37;97122.59;4963064;28;20475;-81
2024/02/13 00:34:39;;;;;;;6.82;3.13;;;;;;;6.91;66.31;97123.13;5011957;28;20035;-81
2024/02/13 00:37:05;;;;;;;5.22;3.03;;;;;;;6.90;65.48;97126.72;4929959;28;20031;-81
2024/02/13 00:39:31;;;;;;;6.95;3.28;;;;;;;6.84;65.67;97117.28;4942305;28;20533;-82
2024/02/13 00:41:57;;;;;;;8.90;3.22;;;;;;;6.88;65.92;97131.34;4949773;28;20038;-81
2024/02/13 00:44:23;;;;;;;6.43;2.75;;;;;;;6.91;66.43;97138.66;4980628;28;20038;-81
2024/02/13 00:46:50;;;;;;;5.93;3.30;;;;;;;6.94;66.66;97142.63;4939990;28;20487;-81
2024/02/13 00:49:16;;;;;;;6.07;3.20;;;;;;;6.93;66.56;97144.41;4935764;28;20535;-82
2024/02/13 00:51:42;;;;;;;7.07;3.75;;;;;;;6.91;66.18;97146.44;4951669;28;20602;-81
2024/02/13 00:54:13;;;;;;;9.48;3.38;;;;;;;6.96;66.19;97155.31;5042193;28;20114;-81
2024/02/13 00:56:42;;;;;;;6.78;3.03;;;;;;;6.98;66.68;97151.53;4957538;28;20067;-81
2024/02/13 00:59:07;;;;;;;6.85;2.92;;;;;;;6.87;66.70;97134.97;4943739;28;20035;-81
2024/02/13 01:01:34;;;;;;;10.32;3.30;;;;;;;6.94;66.93;97143.41;4939328;28;20050;-81
2024/02/13 01:04:00;;;;;;;4.85;2.90;;;;;;;6.99;67.09;97152.28;4936885;28;20035;-81
2024/02/13 01:06:25;;;;;;;6.30;2.92;;;;;;;7.03;67.49;97164.59;4970793;28;20088;-82
2024/02/13 01:08:51;;;;;;;6.20;3.17;;;;;;;6.98;66.74;97153.31;4959611;28;20185;-81
2024/02/13 01:11:17;;;;;;;5.63;2.60;;;;;;;7.02;66.63;97169.97;4963194;28;20039;-81
2024/02/13 01:13:43;;;;;;;6.45;3.13;;;;;;;6.97;67.07;97165.47;5016226;28;20477;-81
2024/02/13 01:16:09;;;;;;;5.53;2.47;;;;;;;7.03;66.20;97167.16;4965771;28;20077;-81
2024/02/13 01:18:35;;;;;;;3.83;2.65;;;;;;;7.02;66.61;97165.59;4966563;28;20502;-81
2024/02/13 01:21:04;;;;;;;5.80;2.40;;;;;;;7.08;66.84;97174.28;4932832;28;20022;-81
2024/02/13 01:23:29;;;;;;;5.65;3.17;;;;;;;7.11;66.45;97172.03;4947218;28;20114;-81
2024/02/13 01:25:56;;;;;;;6.05;3.08;;;;;;;7.08;66.52;97169.09;5036102;28;20439;-81
2024/02/13 01:28:22;;;;;;;5.32;2.90;;;;;;;7.08;66.96;97174.28;4933758;28;20510;-81
2024/02/13 01:30:47;;;;;;;7.25;3.15;;;;;;;7.10;66.38;97187.78;4929499;28;20053;-81
2024/02/13 01:33:13;;;;;;;5.60;2.85;;;;;;;7.05;66.44;97190.25;4961548;28;20294;-80
2024/02/13 01:35:42;;;;;;;5.80;3.33;;;;;;;7.02;66.21;97188.09;4960017;28;20511;-80
2024/02/13 01:38:09;;;;;;;5.88;3.22;;;;;;;7.01;66.83;97184.72;4961964;28;20478;-81
2024/02/13 01:40:35;;;;;;;6.22;3.10;;;;;;;7.07;66.63;97183.06;4964951;28;20108;-81
2024/02/13 01:43:02;;;;;;;6.43;3.10;;;;;;;7.03;66.65;97184.50;4949202;28;20091;-81
2024/02/13 01:45:28;;;;;;;7.57;3.88;;;;;;;7.10;67.16;97188.56;4953391;28;20172;-81
2024/02/13 01:47:55;;;;;;;9.93;4.43;;;;;;;7.19;65.91;97196.81;4953144;28;20038;-81
2024/02/13 01:50:20;;;;;;;11.27;3.72;;;;;;;7.19;66.66;97198.63;4948659;28;20039;-81
2024/02/13 01:52:48;;;;;;;6.00;3.17;;;;;;;7.20;65.24;97187.25;4946321;29;20416;-81
2024/02/13 01:55:16;;;;;;;7.07;3.78;;;;;;;7.17;66.57;97200.66;4940360;28;20035;-81
2024/02/13 01:57:41;;;;;;;7.30;4.03;;;;;;;7.27;66.40;97206.06;4965383;28;20043;-81
2024/02/13 02:00:13;;;;;;;8.25;4.20;;;;;;;7.34;67.18;97206.75;4963649;28;20038;-80
2024/02/13 02:02:42;;;;;;;8.80;3.97;;;;;;;7.42;66.76;97210.81;4955154;28;20038;-80
2024/02/13 02:05:11;;;;;;;8.90;4.30;;;;;;;7.34;67.32;97203.41;4964693;28;20060;-81
2024/02/13 02:07:45;;;;;;;8.48;4.20;;;;;;;7.47;67.41;97197.97;4965612;28;20042;-80
2024/02/13 02:10:10;;;;;;;7.05;4.13;;;;;;;7.46;66.29;97199.00;4964758;28;20057;-80
2024/02/13 02:12:36;;;;;;;7.65;4.38;;;;;;;7.46;66.19;97204.97;4965558;28;20486;-80
2024/02/13 02:15:02;;;;;;;9.60;4.60;;;;;;;7.43;67.54;97194.28;5033156;28;20038;-81
2024/02/13 02:17:28;;;;;;;8.02;4.53;;;;;;;7.48;66.93;97196.97;4934182;28;20038;-81
2024/02/13 02:19:53;;;;;;;7.65;4.40;;;;;;;7.49;67.46;97203.75;5023778;28;20176;-81
2024/02/13 02:22:18;;;;;;;7.82;4.50;;;;;;;7.57;66.77;97206.00;4962502;28;20279;-81
2024/02/13 02:24:44;;;;;;;6.03;4.30;;;;;;;7.58;67.26;97206.81;5045240;28;20114;-81
2024/02/13 02:27:09;;;;;;;11.43;4.43;;;;;;;7.58;67.19;97212.75;5020021;28;20092;-81
2024/02/13 02:29:36;;;;;;;11.10;4.82;;;;;;;7.57;67.74;97205.22;5041996;28;20042;-81
2024/02/13 02:32:03;;;;;;;8.38;4.72;;;;;;;7.68;66.49;97228.56;4923358;29;20126;-81
2024/02/13 02:34:28;;;;;;;9.05;4.93;;;;;;;7.69;67.41;97230.16;4974125;28;20047;-81
2024/02/13 02:36:54;;;;;;;9.05;4.68;;;;;;;7.66;67.94;97216.84;4944647;29;20031;-81
2024/02/13 02:39:19;;;;;;;9.45;5.38;;;;;;;7.77;67.42;97225.63;4947886;28;20145;-81
2024/02/13 02:41:45;;;;;;;8.63;5.47;;;;;;;7.71;67.83;97216.16;4956444;28;20475;-81
2024/02/13 02:44:10;;;;;;;12.35;5.40;;;;;;;7.83;67.90;97237.69;4945583;28;20035;-81
2024/02/13 02:46:36;;;;;;;9.93;4.72;;;;;;;7.82;67.40;97236.91;4945049;28;20092;-82
2024/02/13 02:49:01;;;;;;;14.50;5.93;;;;;;;7.82;67.69;97238.72;4957705;28;20045;-81
2024/02/13 02:51:27;;;;;;;16.25;7.60;;;;;;;7.85;67.25;97238.25;4962427;28;20469;-80
2024/02/13 02:53:52;;;;;;;15.52;6.97;;;;;;;7.85;66.73;97238.25;5037926;28;20119;-81
2024/02/13 02:56:18;;;;;;;11.85;6.50;;;;;;;7.89;67.35;97239.38;4939815;28;20400;-81
2024/02/13 02:58:43;;;;;;;15.00;6.45;;;;;;;7.86;67.13;97238.03;4942275;28;20425;-81
2024/02/13 03:01:09;;;;;;;11.82;6.63;;;;;;;7.97;66.69;97241.66;4960358;28;20444;-81
2024/02/13 03:03:35;;;;;;;17.00;7.18;;;;;;;7.97;67.14;97244.25;5042579;28;20121;-81
2024/02/13 03:06:05;;;;;;;15.68;6.57;;;;;;;7.97;67.07;97240.84;4961337;28;20501;-83
2024/02/13 03:08:30;;;;;;;14.40;6.68;;;;;;;7.91;67.50;97247.72;5027298;28;20475;-89
2024/02/13 03:10:56;;;;;;;14.98;7.38;;;;;;;7.97;67.58;97258.97;4965818;28;20031;-87
2024/02/13 03:13:21;;;;;;;14.00;7.05;;;;;;;7.95;67.78;97254.06;4963623;28;20031;-88
2024/02/13 03:15:47;;;;;;;11.63;6.32;;;;;;;8.03;67.03;97253.69;5025666;28;20058;-87
2024/02/13 03:18:12;;;;;;;13.25;7.50;;;;;;;8.08;67.52;97263.41;4951452;28;20039;-89
2024/02/13 03:20:40;;;;;;;11.38;6.80;;;;;;;8.04;67.14;97262.28;4949876;28;20479;-87
2024/02/13 03:23:06;;;;;;;12.98;7.65;;;;;;;8.15;66.39;97273.66;5010289;28;20071;-88
2024/02/13 03:25:31;;;;;;;16.80;8.27;;;;;;;8.09;67.03;97262.38;4918400;29;20066;-89
2024/02/13 03:27:57;;;;;;;14.32;7.57;;;;;;;8.17;66.74;97266.44;5023346;28;20035;-87
2024/02/13 03:30:22;;;;;;;15.50;7.95;;;;;;;8.10;66.99;97261.34;5041814;28;20041;-88
2024/02/13 03:32:48;;;;;;;13.50;7.95;;;;;;;8.07;66.55;97262.63;4966519;28;20038;-88
2024/02/13 03:35:13;;;;;;;14.63;7.72;;;;;;;8.10;66.47;97263.94;5017870;28;20035;-89
2024/02/13 03:37:39;;;;;;;19.33;8.80;;;;;;;8.05;65.95;97264.66;4960841;28;20038;-88
2024/02/13 03:40:06;;;;;;;16.27;8.52;;;;;;;8.14;66.61;97272.06;5015785;28;20574;-88
2024/02/13 03:42:32;;;;;;;15.60;7.82;;;;;;;8.12;66.19;97269.69;4948714;28;20035;-86
2024/02/13 03:44:58;;;;;;;13.32;7.80;;;;;;;8.12;65.91;97272.28;4936992;28;20035;-87
2024/02/13 03:47:23;;;;;;;16.08;8.90;;;;;;;8.10;66.42;97276.13;4962518;28;20508;-87
2024/02/13 03:49:49;;;;;;;13.95;7.28;;;;;;;8.08;65.92;97273.78;4957026;28;20499;-89
2024/02/13 03:52:14;;;;;;;13.18;7.43;;;;;;;8.11;66.22;97277.72;4963066;28;20478;-87
2024/02/13 03:54:40;;;;;;;13.40;7.75;;;;;;;8.06;65.54;97270.63;5033033;28;20402;-88
2024/02/13 03:57:06;;;;;;;13.27;7.90;;;;;;;8.07;66.00;97282.56;4947257;28;20105;-86
2024/02/13 03:59:32;;;;;;;14.95;8.52;;;;;;;8.09;65.64;97279.72;4951105;28;20046;-87
2024/02/13 04:01:58;;;;;;;15.75;8.68;;;;;;;8.11;65.75;97280.31;4946262;28;20050;-88
2024/02/13 04:04:24;;;;;;;13.90;7.97;;;;;;;8.04;65.53;97283.03;4946394;28;20491;-87
2024/02/13 04:06:49;;;;;;;15.15;7.85;;;;;;;7.95;64.88;97284.34;5029080;28;20033;-89
2024/02/13 04:09:14;;;;;;;13.45;7.82;;;;;;;7.92;65.49;97284.78;4955167;28;20395;-89
2024/02/13 04:11:43;;;;;;;14.40;8.00;;;;;;;8.05;66.49;97284.59;4946354;28;20278;-88
2024/02/13 04:14:09;;;;;;;15.40;7.47;;;;;;;7.99;65.86;97293.28;4954475;28;20049;-89
2024/02/13 04:16:38;;;;;;;16.83;7.82;;;;;;;7.96;65.36;97278.16;4922922;29;20047;-81
2024/02/13 04:19:03;;;;;;;14.95;7.18;;;;;;;7.95;66.79;97298.13;5025706;28;20120;-81
2024/02/13 04:21:29;;;;;;;13.38;8.55;;;;;;;7.96;65.75;97302.28;4964346;28;20038;-81
2024/02/13 04:23:54;;;;;;;17.83;8.25;;;;;;;7.80;66.55;97282.22;4967261;28;20087;-81
2024/02/13 04:26:20;;;;;;;14.98;8.05;;;;;;;7.95;65.72;97299.91;4947724;28;20066;-81
2024/02/13 04:28:46;;;;;;;15.20;8.23;;;;;;;7.92;65.82;97295.16;4940727;28;20035;-81
2024/02/13 04:31:11;;;;;;;14.18;7.78;;;;;;;7.95;66.11;97308.50;5021423;28;20039;-81
2024/02/13 04:33:36;;;;;;;14.30;8.23;;;;;;;7.94;66.29;97304.31;4951413;28;20474;-81
2024/02/13 04:36:03;;;;;;;18.75;9.23;;;;;;;7.95;65.19;97305.09;4949570;28;20046;-81
2024/02/13 04:38:31;;;;;;;14.45;7.80;;;;;;;7.94;65.73;97316.50;4943329;28;20031;-81
2024/02/13 04:40:56;;;;;;;14.68;7.90;;;;;;;7.90;65.53;97312.75;4943142;28;20031;-80
2024/02/13 04:43:21;;;;;;;13.10;7.78;;;;;;;7.89;65.92;97309.38;4948368;28;20410;-81
2024/02/13 04:45:47;;;;;;;17.10;8.65;;;;;;;7.88;65.65;97312.97;4945940;28;20037;-81
2024/02/13 04:48:13;;;;;;;16.25;8.45;;;;;;;7.90;66.86;97310.97;4945361;28;20057;-81
2024/02/13 04:50:38;;;;;;;13.95;7.55;;;;;;;7.94;66.19;97306.91;4949987;28;20034;-81
2024/02/13 04:53:04;;;;;;;12.80;7.05;;;;;;;7.87;66.12;97304.41;4960486;28;20553;-81
2024/02/13 04:55:30;;;;;;;14.63;8.70;;;;;;;7.91;66.90;97303.97;4943981;28;20043;-81
2024/02/13 04:57:57;;;;;;;17.55;8.13;;;;;;;7.95;66.90;97316.28;4960625;28;20046;-81
2024/02/13 05:00:25;;;;;;;14.27;7.22;;;;;;;7.96;67.04;97309.28;4946656;28;20049;-81
2024/02/13 05:03:16;;;;;;;15.57;8.32;;;;;;;8.01;66.18;97315.38;4964119;28;20042;-81
2024/02/13 05:08:30;;;;;;;17.08;8.20;;;;;;;7.94;67.17;97324.28;4959671;28;20406;-81
2024/02/13 05:10:59;;;;;;;15.93;7.85;;;;;;;7.96;66.75;97327.44;4959365;28;20038;-81
2024/02/13 05:13:25;;;;;;;17.98;8.65;;;;;;;7.99;67.05;97322.59;5024785;28;20039;-81
2024/02/13 05:15:50;;;;;;;17.52;7.97;;;;;;;8.05;66.79;97326.88;4954871;28;20406;-81
2024/02/13 05:18:17;;;;;;;13.95;7.97;;;;;;;8.04;66.16;97333.06;5006665;28;20034;-80
2024/02/13 05:20:43;;;;;;;18.48;9.85;;;;;;;7.96;66.11;97333.41;4966531;28;20039;-81
2024/02/13 05:23:10;;;;;;;16.70;7.90;;;;;;;8.11;65.68;97345.16;4947151;28;20479;-81
2024/02/13 05:25:36;;;;;;;13.30;7.78;;;;;;;8.07;66.00;97350.78;4947909;28;20046;-81
2024/02/13 05:28:01;;;;;;;18.38;8.77;;;;;;;8.13;66.29;97345.72;4964449;28;20035;-86
2024/02/13 05:30:27;;;;;;;17.88;8.05;;;;;;;8.06;65.97;97345.81;4938934;28;20043;-89
2024/02/13 05:32:52;;;;;;;17.08;8.07;;;;;;;8.05;65.77;97350.22;4952837;28;20019;-86
2024/02/13 05:35:18;;;;;;;17.83;8.70;;;;;;;7.99;66.27;97337.34;5044012;28;20042;-90
2024/02/13 05:37:43;;;;;;;15.02;8.20;;;;;;;8.02;66.98;97349.84;4932897;29;20034;-88
2024/02/13 05:40:10;;;;;;;16.27;7.53;;;;;;;8.06;66.60;97338.03;4951706;28;20051;-89
2024/02/13 05:42:36;;;;;;;14.65;7.82;;;;;;;8.03;66.68;97335.88;4946209;28;20036;-88
2024/02/13 05:45:03;;;;;;;13.60;7.05;;;;;;;8.04;65.84;97325.28;4963547;28;20046;-88
2024/02/13 05:47:35;;;;;;;13.02;7.03;;;;;;;8.10;65.91;97338.38;4950840;28;20038;-90
2024/02/13 05:50:03;;;;;;;13.38;7.25;;;;;;;8.10;66.06;97340.97;5019625;28;20384;-88
2024/02/13 05:52:30;;;;;;;15.60;7.15;;;;;;;8.04;66.19;97353.03;4997938;28;20030;-87
2024/02/13 05:54:56;;;;;;;16.38;8.20;;;;;;;8.04;65.97;97345.25;4970553;28;20212;-89
2024/02/13 05:57:21;;;;;;;12.98;7.13;;;;;;;8.05;66.84;97358.00;4944580;28;20073;-89
2024/02/13 05:59:47;;;;;;;15.55;7.20;;;;;;;8.05;66.96;97347.63;5022676;28;20039;-88
2024/02/13 06:02:13;;;;;;;10.98;6.28;;;;;;;8.04;67.06;97358.22;4971131;28;20087;-87
2024/02/13 06:04:38;;;;;;;18.30;7.88;;;;;;;8.04;66.43;97356.41;4944426;28;20050;-88
2024/02/13 06:07:05;;;;;;;12.75;7.47;;;;;;;8.10;66.77;97354.72;4970872;28;20042;-87
2024/02/13 06:09:31;;;;;;;14.52;7.90;;;;;;;8.06;66.07;97359.56;4954709;28;20057;-87
2024/02/13 06:11:56;;;;;;;11.70;7.03;;;;;;;8.02;66.78;97358.44;5054388;28;20491;-88
2024/02/13 06:14:22;;;;;;;12.43;7.53;;;;;;;8.00;66.37;97359.66;4962408;28;20124;-89
2024/02/13 06:16:47;;;;;;;15.60;7.43;;;;;;;8.01;66.92;97367.22;4950818;28;20049;-86
2024/02/13 06:19:13;;;;;;;13.75;6.78;;;;;;;8.02;66.33;97368.00;4968799;28;20101;-89
2024/02/13 06:21:39;;;;;;;14.75;7.32;;;;;;;7.99;66.94;97369.25;4970654;28;20039;-89
2024/02/13 06:24:05;;;;;;;13.27;7.57;;;;;;;8.02;66.41;97374.00;4954721;28;20039;-88
2024/02/13 06:26:30;;;;;;;18.55;9.77;;;;;;;8.02;66.59;97381.78;4944416;28;20516;-89
2024/02/13 06:28:56;;;;;;;17.35;9.13;;;;;;;8.06;66.57;97376.94;4948109;28;20085;-88
2024/02/13 06:31:21;;;;;;;18.48;9.35;;;;;;;7.97;67.39;97375.66;4962093;28;20042;-84
2024/02/13 06:33:47;;;;;;;18.00;8.25;;;;;;;8.00;67.03;97373.44;4957769;28;20027;-88
2024/02/13 06:36:13;;;;;;;17.23;8.25;;;;;;;7.92;66.48;97360.78;4959253;28;20384;-88
2024/02/13 06:38:39;;;;;;;16.58;7.60;;;;;;;7.98;67.00;97374.66;4950288;28;20035;-81
2024/02/13 06:41:05;;;;;;;15.40;7.70;;;;;;;7.97;67.22;97379.06;4948144;28;20042;-81
2024/02/13 06:43:34;;;;;;;16.08;7.75;;;;;;;8.02;66.82;97389.56;4958931;28;20092;-81
2024/02/13 06:46:03;;;;;;;15.68;7.85;;;;;;;7.97;66.61;97386.84;4939041;28;20034;-81
2024/02/13 06:48:28;;;;;;;18.05;8.73;;;;;;;8.12;66.02;97396.00;4962062;28;20334;-80
2024/02/13 06:50:53;;;;;;;16.50;8.43;;;;;;;8.15;67.10;97398.16;4951440;28;20081;-81
2024/02/13 06:53:19;;;;;;;19.13;8.70;;;;;;;8.11;66.86;97403.00;4956821;28;20042;-81
2024/02/13 06:55:45;;;;;;;17.00;8.77;;;;;;;8.00;67.08;97381.22;4956220;28;20035;-80
2024/02/13 06:58:11;;;;;;;17.58;9.02;;;;;;;8.05;66.26;97407.28;4959430;28;20161;-81
2024/02/13 07:00:37;;;;;;;17.10;8.80;;;;;;;8.13;66.68;97403.56;4948573;28;20250;-81
2024/02/13 07:03:02;;;;;;;12.45;7.47;;;;;;;8.18;66.04;97408.88;4942368;28;20039;-81
2024/02/13 07:05:29;;;;;;;13.32;7.32;;;;;;;8.20;66.14;97416.44;4956660;28;20031;-78
2024/02/13 07:07:55;;;;;;;13.80;7.45;;;;;;;8.16;66.71;97407.53;4961206;28;20515;-80
2024/02/13 07:10:20;;;;;;;17.30;6.82;;;;;;;8.19;67.12;97407.06;4940277;28;20108;-81
2024/02/13 07:12:46;;;;;;;15.75;8.27;;;;;;;8.22;66.77;97414.41;4957693;28;20080;-81
2024/02/13 07:15:11;;;;;;;15.60;7.75;;;;;;;8.24;66.48;97420.97;4944883;28;20027;-80
2024/02/13 07:17:36;;;;;;;13.10;7.72;;;;;;;8.18;66.59;97408.09;4956928;28;20096;-81
2024/02/13 07:20:03;;;;;;;13.43;7.90;;;;;;;8.22;66.58;97415.19;4948425;28;20047;-80
2024/02/13 07:22:28;;;;;;;14.93;7.70;;;;;;;8.19;66.80;97420.84;4964185;28;20440;-80
2024/02/13 07:24:54;;;;;;;16.23;7.78;;;;;;;8.27;66.57;97432.69;4963828;28;20035;-81
2024/02/13 07:27:19;;;;;;;15.48;6.88;;;;;;;8.39;66.44;97438.66;4924104;28;20038;-81
2024/02/13 07:29:44;;;;;;;11.02;6.85;;;;;;;8.33;66.58;97436.16;5033062;28;20510;-81
2024/02/13 07:32:10;;;;;;;12.98;7.35;;;;;;;8.40;66.93;97444.66;4956761;28;20524;-80
2024/02/13 07:34:41;;;;;;;12.93;7.00;;;;;;;8.35;67.49;97457.53;4978328;28;20530;-80
2024/02/13 07:37:08;;;;;;;13.00;7.38;;;;;;;8.39;67.23;97459.44;5027546;28;20122;-81
2024/02/13 07:39:36;;;;;;;12.18;6.97;;;;;;;8.31;66.71;97439.03;4950691;28;20039;-79
2024/02/13 07:42:01;;;;;;;15.93;7.72;;;;;;;8.44;66.51;97459.56;4954739;28;20058;-81
2024/02/13 07:44:29;;;;;;;12.98;7.10;;;;;;;8.55;65.69;97454.63;4932182;28;20034;-80
2024/02/13 07:46:56;;;;;;;13.50;7.53;;;;;;;8.50;66.76;97452.72;4958537;28;20342;-81
2024/02/13 07:49:22;;;;;;;12.63;7.30;;;;;;;8.48;66.41;97456.53;4946717;28;20039;-88
2024/02/13 07:51:48;;;;;;;12.18;6.60;;;;;;;8.41;65.62;97465.22;5000694;28;20046;-85
2024/02/13 07:54:14;;;;;;;9.60;6.03;;;;;;;8.48;66.96;97461.72;5015762;28;20659;-87
2024/02/13 07:56:41;;;;;;;14.85;6.80;;;;;;;8.49;64.95;97450.34;4966003;28;20043;-85
2024/02/13 07:59:06;;;;;;;13.15;6.82;;;;;;;8.51;66.57;97456.88;4964937;28;20133;-87
2024/02/13 08:01:33;;;;;;;12.18;6.65;;;;;;;8.57;65.99;97457.81;4961879;28;20154;-88
2024/02/13 08:04:00;;;;;;;10.93;6.57;;;;;;;8.63;66.12;97449.91;4949755;29;20590;-88
2024/02/13 08:06:25;;;;;;;11.15;6.20;;;;;;;8.66;66.64;97460.88;4962188;28;20110;-87
2024/02/13 08:08:54;;;;;;;12.52;7.25;;;;;;;8.58;66.65;97460.16;4978621;28;20126;-85
2024/02/13 08:11:21;;;;;;;12.30;7.03;;;;;;;8.67;66.18;97467.63;4946524;28;20024;-88
2024/02/13 08:13:46;;;;;;;10.75;6.47;;;;;;;8.66;66.23;97466.84;4931174;28;20062;-86
2024/02/13 08:16:13;;;;;;;12.32;6.55;;;;;;;8.68;66.54;97472.59;4952209;28;20383;-86
2024/02/13 08:18:40;;;;;;;13.48;6.70;;;;;;;8.64;66.51;97468.88;4949332;28;20481;-87
2024/02/13 08:21:05;;;;;;;13.30;6.15;;;;;;;8.71;66.16;97468.78;4965328;28;20550;-85
2024/02/13 08:23:33;;;;;;;10.10;6.07;;;;;;;8.63;65.58;97464.69;4967372;28;20043;-87
2024/02/13 08:25:58;;;;;;;12.25;6.25;;;;;;;8.67;65.24;97468.44;5035430;28;20507;-88
2024/02/13 08:28:23;;;;;;;10.82;6.15;;;;;;;8.65;66.05;97470.44;4968171;28;20362;-87
2024/02/13 08:30:49;;;;;;;12.35;6.45;;;;;;;8.64;66.44;97461.09;4967990;28;20065;-85
2024/02/13 08:33:16;;;;;;;12.15;6.75;;;;;;;8.65;65.16;97465.25;4945348;28;20138;-86
2024/02/13 08:35:42;;;;;;;10.00;5.30;;;;;;;8.65;66.16;97473.03;4962634;28;20088;-86
2024/02/13 08:38:08;;;;;;;10.48;5.93;;;;;;;8.69;66.35;97463.00;4946159;29;20037;-86
2024/02/13 08:40:33;;;;;;;11.75;6.43;;;;;;;8.66;66.37;97469.44;4944829;28;20248;-87
2024/02/13 08:42:59;;;;;;;10.98;5.82;;;;;;;8.78;65.50;97470.22;4967379;28;20575;-88
2024/02/13 08:45:24;;;;;;;12.10;6.28;;;;;;;8.84;66.26;97475.53;4967799;28;20035;-87
2024/02/13 08:47:50;;;;;;;14.10;6.38;;;;;;;8.87;65.56;97472.50;4949750;28;20066;-87
2024/02/13 08:50:16;;;;;;;11.48;6.78;;;;;;;8.86;66.09;97476.09;4957070;28;20043;-86
2024/02/13 08:52:42;;;;;;;10.88;6.60;;;;;;;8.81;65.65;97485.38;4951995;28;20397;-86
2024/02/13 08:55:08;;;;;;;13.35;6.07;;;;;;;8.85;65.22;97484.91;5025434;28;20038;-85
2024/02/13 08:57:35;;;;;;;11.20;6.00;;;;;;;8.75;66.25;97472.50;4968014;28;20505;-87
2024/02/13 09:00:01;;;;;;;11.15;7.03;;;;;;;8.84;66.12;97484.13;4933752;28;20031;-81
2024/02/13 09:02:26;;;;;;;12.32;7.25;;;;;;;8.96;66.13;97487.53;4962691;28;20035;-80
2024/02/13 09:04:52;;;;;;;11.73;6.70;;;;;;;8.99;66.90;97492.25;5011847;28;20489;-80
2024/02/13 09:07:17;;;;;;;12.82;6.00;;;;;;;9.09;66.91;97496.88;4947550;28;20039;-80
2024/02/13 09:09:42;;;;;;;11.95;5.82;;;;;;;9.22;66.24;97490.69;5035045;28;20041;-80
2024/02/13 09:12:11;;;;;;;14.18;6.60;;;;;;;9.31;65.83;97494.50;4946628;28;20024;-81
2024/02/13 09:14:37;;;;;;;10.80;5.47;;;;;;;9.49;66.00;97490.19;4944267;28;20066;-80
2024/02/13 09:17:02;;;;;;;12.50;5.75;;;;;;;9.59;66.02;97502.59;4960605;28;20439;-81
2024/02/13 09:19:28;;;;;;;8.30;5.45;;;;;;;9.63;65.44;97514.09;4948623;28;20035;-79
2024/02/13 09:21:53;;;;;;;10.05;5.45;;;;;;;9.68;65.33;97503.81;4951051;28;20041;-81
2024/02/13 09:24:19;;;;;;;9.43;5.20;;;;;;;9.54;64.41;97498.06;4949540;28;20027;-78
2024/02/13 09:26:44;;;;;;;10.10;5.45;;;;;;;9.59;64.08;97505.19;4950516;28;20027;-78
2024/02/13 09:29:10;;;;;;;8.88;4.95;;;;;;;9.68;63.51;97509.81;4965946;28;20465;-80
2024/02/13 09:31:35;;;;;;;8.65;4.57;;;;;;;9.62;64.36;97504.75;4960536;28;20130;-80
2024/02/13 09:34:01;;;;;;;8.82;4.78;;;;;;;9.63;64.15;97503.72;4965752;28;20042;-81
2024/02/13 09:36:27;;;;;;;7.43;4.97;;;;;;;9.57;64.06;97505.41;4982586;28;20043;-80
2024/02/13 09:38:55;;;;;;;9.85;5.13;;;;;;;9.64;63.70;97519.06;4935247;28;20034;-80
2024/02/13 09:41:21;;;;;;;8.95;5.00;;;;;;;9.53;63.27;97512.88;4960370;28;20114;-79
2024/02/13 09:43:49;;;;;;;10.50;5.70;;;;;;;9.66;63.76;97518.84;4960841;28;20391;-80
2024/02/13 09:46:15;;;;;;;10.90;5.72;;;;;;;9.49;63.47;97506.59;4965085;28;20457;-79
2024/02/13 09:48:45;;;;;;;10.38;5.20;;;;;;;9.67;63.90;97528.25;4944885;28;20077;-81
2024/02/13 09:51:18;;;;;;;7.20;4.93;;;;;;;9.63;63.78;97527.91;4948099;28;20538;-81
2024/02/13 09:53:46;;;;;;;8.77;4.90;;;;;;;9.53;63.86;97520.69;4966153;28;20039;-80
2024/02/13 09:56:14;;;;;;;8.40;4.18;;;;;;;9.61;64.01;97519.53;4948539;28;20057;-80
2024/02/13 09:58:44;;;;;;;7.68;4.78;;;;;;;9.79;63.12;97531.59;5020676;28;20397;-85
2024/02/13 10:01:09;;;;;;;8.15;4.10;;;;;;;9.86;62.38;97542.66;4932589;28;20034;-80
2024/02/13 10:03:39;;;;;;;5.40;4.00;;;;;;;9.93;62.05;97542.53;4950662;28;20417;-80
2024/02/13 10:06:06;;;;;;;5.55;3.60;;;;;;;9.91;61.25;97539.38;4918148;28;20057;-80
2024/02/13 10:08:34;;;;;;;9.00;4.13;;;;;;;9.83;60.43;97552.75;4943651;28;20092;-80
2024/02/13 10:11:04;;;;;;;6.75;3.72;;;;;;;9.74;60.65;97554.91;4964840;28;20039;-80
2024/02/13 10:13:38;;;;;;;7.57;3.92;;;;;;;9.74;61.67;97544.50;4949034;28;20514;-81
2024/02/13 10:16:04;;;;;;;7.27;4.07;;;;;;;9.56;61.71;97543.63;4938793;28;20113;-79
2024/02/13 10:18:30;;;;;;;6.85;4.00;;;;;;;9.52;61.50;97563.28;4926164;29;20500;-80
2024/02/13 10:20:55;;;;;;;7.32;4.68;;;;;;;9.37;60.60;97570.75;4930078;28;20062;-80
2024/02/13 10:23:24;;;;;;;6.55;4.07;;;;;;;9.37;60.32;97565.56;4945701;29;20046;-83
2024/02/13 10:25:50;;;;;;;9.32;4.05;;;;;;;9.25;60.91;97549.97;4961393;28;20035;-79
2024/02/13 10:28:16;;;;;;;7.28;4.10;;;;;;;9.33;61.78;97556.63;4962300;28;20117;-78
2024/02/13 10:30:48;;;;;;;6.30;4.40;;;;;;;9.30;61.96;97559.69;4935982;28;20050;-78
2024/02/13 10:33:15;;;;;;;7.50;3.60;;;;;;;9.23;60.47;97548.63;4944834;28;20149;-80
2024/02/13 10:35:40;;;;;;;6.20;3.47;;;;;;;9.33;61.32;97554.03;4963166;28;20830;-79
2024/02/13 10:38:07;;;;;;;7.28;3.55;;;;;;;9.47;61.17;97549.41;4945467;28;20056;-79
2024/02/13 10:40:35;;;;;;;7.68;3.85;;;;;;;9.68;61.13;97561.00;4947173;28;20019;-79
2024/02/13 10:43:03;;;;;;;6.63;3.50;;;;;;;9.93;62.09;97543.31;4952757;28;20039;-79
2024/02/13 10:45:30;;;;;;;7.20;3.28;;;;;;;10.25;59.66;97552.50;5013013;28;20049;-79
2024/02/13 10:48:09;;;;;;;6.57;3.85;;;;;;;10.42;58.84;97542.16;4964835;28;20039;-79
2024/02/13 10:50:36;;;;;;;7.68;3.35;;;;;;;10.43;57.69;97538.53;4932213;29;20101;-79
2024/02/13 10:53:03;;;;;;;5.75;3.25;;;;;;;10.30;57.13;97545.56;4961942;28;20046;-79
2024/02/13 10:55:28;;;;;;;4.75;3.17;;;;;;;10.17;58.02;97545.84;5026051;28;20035;-79
2024/02/13 10:57:54;;;;;;;6.13;3.13;;;;;;;10.09;57.25;97547.03;4949152;28;20037;-79
2024/02/13 11:00:20;;;;;;;5.47;3.67;;;;;;;10.26;57.75;97548.88;4957965;28;20078;-79
2024/02/13 11:02:47;;;;;;;6.47;3.83;;;;;;;10.34;57.92;97539.94;4965029;28;20442;-79
2024/02/13 11:05:15;;;;;;;6.18;3.75;;;;;;;10.48;57.00;97543.81;4954952;28;20035;-79
2024/02/13 11:08:06;;;;;;;6.45;3.97;;;;;;;10.62;56.04;97544.31;5033874;28;20056;-79
2024/02/13 11:10:34;;;;;;;4.38;3.35;;;;;;;10.43;56.88;97536.69;4962727;28;20061;-79
2024/02/13 11:13:05;;;;;;;7.03;4.18;;;;;;;10.49;56.75;97545.41;4958107;28;20038;-79
2024/02/13 11:15:33;;;;;;;6.18;3.88;;;;;;;10.35;57.73;97542.31;4946682;28;20035;-79
2024/02/13 11:18:04;;;;;;;5.80;3.53;;;;;;;10.37;57.94;97549.88;4944935;28;20040;-86
2024/02/13 11:20:30;;;;;;;6.82;4.05;;;;;;;10.14;56.94;97548.91;4957919;28;20534;-87
2024/02/13 11:22:59;;;;;;;8.85;4.53;;;;;;;10.07;57.63;97551.63;4945674;28;20031;-85
2024/02/13 11:25:28;;;;;;;6.85;4.32;;;;;;;10.07;56.75;97548.25;5029666;28;20053;-84
2024/02/13 11:28:08;;;;;;;8.00;4.35;;;;;;;10.00;57.36;97551.00;4922781;28;20243;-86
2024/02/13 11:30:35;;;;;;;6.78;3.90;;;;;;;10.04;57.55;97554.72;4946570;28;20665;-86
2024/02/13 11:33:05;;;;;;;8.93;4.50;;;;;;;10.20;57.83;97540.19;4963559;28;20217;-85
2024/02/13 11:35:32;;;;;;;5.95;4.03;;;;;;;10.38;57.81;97534.00;4938304;29;20078;-85